createdAt,value
2022-08-26T00:03:47.122Z,22.80
2022-08-26T00:08:49.921Z,22.75
2022-08-26T00:13:54.340Z,22.63
2022-08-26T00:18:57.205Z,22.72
2022-08-26T00:24:00.815Z,22.77
2022-08-26T00:29:05.593Z,22.45
2022-08-26T00:34:09.409Z,22.13
2022-08-26T00:39:12.532Z,22.21
2022-08-26T00:44:17.540Z,22.11
2022-08-26T00:49:25.821Z,22.10
2022-08-26T00:54:34.752Z,22.22
2022-08-26T00:59:39.176Z,22.41
2022-08-26T01:04:42.905Z,22.20
2022-08-26T01:09:48.477Z,22.21
2022-08-26T01:14:53.685Z,22.27
2022-08-26T01:20:04.108Z,22.37
2022-08-26T01:25:08.734Z,22.44
2022-08-26T01:30:12.589Z,22.35
2022-08-26T01:35:15.549Z,22.34
2022-08-26T01:40:25.630Z,22.32
2022-08-26T01:45:31.532Z,22.11
2022-08-26T01:50:37.414Z,22.08
2022-08-26T01:55:45.439Z,22.22
2022-08-26T02:00:48.913Z,22.21
2022-08-26T02:05:56.060Z,22.19
2022-08-26T02:11:02.469Z,22.07
2022-08-26T02:16:05.807Z,21.87
2022-08-26T02:21:12.714Z,21.70
2022-08-26T02:26:19.704Z,21.70
2022-08-26T02:31:22.542Z,21.73
2022-08-26T02:36:28.742Z,21.75
2022-08-26T02:41:33.037Z,21.75
2022-08-26T02:46:36.368Z,21.67
2022-08-26T02:51:40.244Z,21.51
2022-08-26T02:56:47.192Z,21.53
2022-08-26T03:01:50.368Z,21.55
2022-08-26T03:06:53.417Z,21.46
2022-08-26T03:12:00.638Z,21.25
2022-08-26T03:17:03.436Z,21.12
2022-08-26T03:22:07.177Z,21.07
2022-08-26T03:27:11.474Z,21.20
2022-08-26T03:32:16.734Z,21.21
2022-08-26T03:37:20.858Z,20.97
2022-08-26T03:42:25.649Z,20.51
2022-08-26T03:47:28.515Z,20.73
2022-08-26T03:52:32.017Z,20.82
2022-08-26T03:57:36.385Z,20.38
2022-08-26T04:02:39.537Z,20.09
2022-08-26T04:07:43.764Z,20.33
2022-08-26T04:12:48.308Z,20.36
2022-08-26T04:17:51.283Z,19.81
2022-08-26T04:22:54.474Z,19.47
2022-08-26T04:27:58.680Z,19.74
2022-08-26T04:33:04.434Z,20.11
2022-08-26T04:38:16.194Z,20.35
2022-08-26T04:43:20.515Z,20.37
2022-08-26T04:48:23.359Z,20.45
2022-08-26T04:53:26.531Z,20.63
2022-08-26T04:58:31.010Z,20.65
2022-08-26T05:03:33.802Z,20.69
2022-08-26T05:08:37.516Z,20.72
2022-08-26T05:13:42.062Z,20.75
2022-08-26T05:18:46.328Z,20.80
2022-08-26T05:23:51.284Z,20.91
2022-08-26T05:28:57.720Z,21.07
2022-08-26T05:34:03.676Z,21.00
2022-08-26T05:39:07.992Z,20.42
2022-08-26T05:44:18.682Z,20.61
2022-08-26T05:49:22.521Z,20.82
2022-08-26T05:54:29.240Z,20.99
2022-08-26T05:59:33.427Z,21.19
2022-08-26T06:05:14.621Z,21.14
2022-08-26T06:10:33.885Z,21.36
2022-08-26T06:15:42.030Z,21.57
2022-08-26T06:20:57.127Z,20.95
2022-08-26T06:26:01.508Z,21.21
2022-08-26T06:31:07.021Z,21.51
2022-08-26T06:36:17.219Z,21.98
2022-08-26T06:41:23.668Z,22.14
2022-08-26T06:46:28.297Z,22.45
2022-08-26T06:51:34.570Z,22.94
2022-08-26T06:56:40.027Z,23.37
2022-08-26T07:01:45.541Z,23.85
2022-08-26T07:06:50.142Z,24.29
2022-08-26T07:11:56.466Z,24.31
2022-08-26T07:17:01.386Z,24.65
2022-08-26T07:22:06.935Z,24.57
2022-08-26T07:27:13.886Z,24.50
2022-08-26T07:32:22.921Z,24.36
2022-08-26T07:37:25.981Z,24.74
2022-08-26T07:42:28.919Z,24.69
2022-08-26T07:47:33.075Z,25.48
2022-08-26T07:52:37.557Z,25.45
2022-08-26T07:57:42.130Z,26.00
2022-08-26T08:02:46.998Z,26.47
2022-08-26T08:07:53.414Z,26.81
2022-08-26T08:12:57.546Z,25.71
2022-08-26T08:18:04.127Z,26.35
2022-08-26T08:23:07.177Z,26.54
2022-08-26T08:28:10.138Z,27.79
2022-08-26T08:33:14.960Z,27.45
2022-08-26T08:38:18.073Z,28.34
2022-08-26T08:43:32.652Z,29.17
2022-08-26T08:48:46.228Z,28.24
2022-08-26T08:53:54.551Z,27.65
2022-08-26T08:59:05.964Z,27.58
2022-08-26T09:04:30.797Z,27.76
2022-08-26T09:09:38.776Z,26.43
2022-08-26T09:14:41.646Z,26.42
2022-08-26T09:19:52.252Z,27.53
2022-08-26T09:24:55.187Z,28.11
2022-08-26T09:30:00.377Z,28.35
2022-08-26T09:35:08.321Z,29.62
2022-08-26T09:40:20.395Z,28.98
2022-08-26T09:45:28.988Z,29.71
2022-08-26T09:50:37.216Z,30.55
2022-08-26T09:55:43.515Z,30.86
2022-08-26T10:00:56.762Z,30.22
2022-08-26T10:06:04.008Z,31.92
2022-08-26T10:11:16.127Z,32.29
2022-08-26T10:16:24.092Z,32.38
2022-08-26T10:21:36.849Z,30.60
2022-08-26T10:26:47.580Z,30.75
2022-08-26T10:31:55.831Z,31.03
2022-08-26T10:37:14.467Z,31.43
2022-08-26T10:42:24.659Z,33.09
2022-08-26T10:47:35.597Z,32.65
2022-08-26T10:52:53.201Z,29.44
2022-08-26T10:58:04.730Z,29.98
2022-08-26T11:03:21.973Z,29.27
2022-08-26T11:08:30.885Z,28.96
2022-08-26T11:13:59.949Z,30.50
2022-08-26T11:19:03.351Z,33.00
2022-08-26T11:24:08.155Z,33.83
2022-08-26T11:29:12.261Z,35.55
2022-08-26T11:34:16.516Z,35.27
2022-08-26T11:39:25.373Z,35.27
2022-08-26T11:44:36.906Z,35.98
2022-08-26T11:49:41.773Z,35.10
2022-08-26T11:55:06.788Z,33.11
2022-08-26T12:00:14.231Z,32.80
2022-08-26T12:05:25.309Z,31.87
2022-08-26T12:10:33.592Z,32.85
2022-08-26T12:15:36.858Z,31.91
2022-08-26T12:20:48.283Z,31.02
2022-08-26T12:25:55.401Z,32.53
2022-08-26T12:31:06.956Z,32.99
2022-08-26T12:36:10.027Z,35.71
2022-08-26T12:41:34.245Z,34.29
2022-08-26T12:46:37.486Z,35.24
2022-08-26T12:51:42.171Z,33.68
2022-08-26T12:56:46.355Z,34.52
2022-08-26T13:01:49.665Z,35.74
2022-08-26T13:07:20.065Z,32.33
2022-08-26T13:12:30.853Z,32.82
2022-08-26T13:17:35.790Z,32.98
2022-08-26T13:22:38.690Z,31.97
2022-08-26T13:27:43.221Z,32.43
2022-08-26T13:32:46.063Z,31.63
2022-08-26T13:37:48.935Z,32.89
2022-08-26T13:42:53.121Z,33.14
2022-08-26T13:47:55.910Z,32.06
2022-08-26T13:52:58.889Z,32.65
2022-08-26T13:58:03.440Z,32.24
2022-08-26T14:03:12.607Z,29.73
2022-08-26T14:08:16.189Z,30.10
2022-08-26T14:13:20.503Z,29.14
2022-08-26T14:18:30.396Z,31.73
2022-08-26T14:23:33.280Z,31.45
2022-08-26T14:28:37.690Z,30.73
2022-08-26T14:33:43.853Z,29.64
2022-08-26T14:38:46.802Z,30.77
2022-08-26T14:43:57.845Z,31.20
2022-08-26T14:49:05.216Z,30.98
2022-08-26T14:54:13.928Z,30.04
2022-08-26T14:59:20.706Z,29.14
2022-08-26T15:04:24.775Z,30.14
2022-08-26T15:09:29.077Z,29.63
2022-08-26T15:14:33.417Z,31.22
2022-08-26T15:19:36.223Z,30.45
2022-08-26T15:24:39.087Z,29.59
2022-08-26T15:29:43.826Z,28.61
2022-08-26T15:34:46.701Z,27.34
2022-08-26T15:39:49.615Z,27.13
2022-08-26T15:44:55.670Z,27.18
2022-08-26T15:49:58.484Z,27.07
2022-08-26T15:55:01.534Z,27.22
2022-08-26T16:00:07.196Z,26.96
2022-08-26T16:05:14.604Z,23.75
2022-08-26T16:10:18.604Z,22.12
2022-08-26T16:15:22.885Z,21.02
2022-08-26T16:20:26.088Z,20.41
2022-08-26T16:25:29.921Z,19.97
2022-08-26T16:30:34.094Z,20.03
2022-08-26T16:35:36.862Z,20.44
2022-08-26T16:40:40.054Z,20.50
2022-08-26T16:45:44.135Z,20.91
2022-08-26T16:50:47.063Z,18.73
2022-08-26T16:55:51.121Z,19.22
2022-08-26T17:00:55.356Z,20.03
2022-08-26T17:05:58.360Z,21.15
2022-08-26T17:11:01.889Z,22.65
2022-08-26T17:16:08.375Z,23.26
2022-08-26T17:21:14.527Z,23.58
2022-08-26T17:26:17.553Z,23.65
2022-08-26T17:31:22.432Z,23.50
2022-08-26T17:36:28.062Z,23.28
2022-08-26T17:41:31.201Z,22.82
2022-08-26T17:46:38.451Z,22.30
2022-08-26T17:51:42.057Z,21.85
2022-08-26T17:56:44.832Z,21.53
2022-08-26T18:01:49.589Z,21.38
2022-08-26T18:06:52.430Z,21.13
2022-08-26T18:11:55.302Z,21.23
2022-08-26T18:16:59.549Z,21.13
2022-08-26T18:22:02.350Z,21.09
2022-08-26T18:27:05.657Z,21.10
2022-08-26T18:32:09.909Z,21.04
2022-08-26T18:37:14.461Z,20.96
2022-08-26T18:42:17.326Z,20.95
2022-08-26T18:47:21.631Z,20.84
2022-08-26T18:52:24.838Z,20.77
2022-08-26T18:57:28.796Z,20.83
2022-08-26T19:02:34.297Z,20.80
2022-08-26T19:07:39.626Z,20.93
2022-08-26T19:12:42.730Z,21.05
2022-08-26T19:17:48.144Z,21.08
2022-08-26T19:22:51.034Z,20.95
2022-08-26T19:27:53.944Z,21.14
2022-08-26T19:32:58.163Z,21.17
2022-08-26T19:38:02.575Z,21.22
2022-08-26T19:43:06.003Z,21.27
2022-08-26T19:48:11.372Z,21.29
2022-08-26T19:53:15.411Z,21.13
2022-08-26T19:58:18.224Z,20.96
2022-08-26T20:03:23.866Z,20.88
2022-08-26T20:08:26.765Z,20.88
2022-08-26T20:13:30.176Z,20.83
2022-08-26T20:18:52.005Z,20.68
2022-08-26T20:23:56.314Z,20.86
2022-08-26T20:28:59.709Z,20.86
2022-08-26T20:34:05.140Z,20.91
2022-08-26T20:39:08.886Z,20.92
2022-08-26T20:44:13.229Z,20.84
2022-08-26T20:49:18.767Z,20.84
2022-08-26T20:54:28.147Z,20.82
2022-08-26T20:59:31.836Z,20.75
2022-08-26T21:04:36.187Z,20.89
2022-08-26T21:09:39.017Z,20.86
2022-08-26T21:14:41.865Z,20.88
2022-08-26T21:19:46.117Z,20.93
2022-08-26T21:24:49.057Z,20.89
2022-08-26T21:29:52.142Z,20.91
2022-08-26T21:34:57.513Z,20.79
2022-08-26T21:40:03.548Z,20.77
2022-08-26T21:45:08.116Z,20.75
2022-08-26T21:50:13.506Z,20.79
2022-08-26T21:55:16.409Z,20.79
2022-08-26T22:00:19.925Z,20.78
2022-08-26T22:05:24.097Z,20.62
2022-08-26T22:10:26.933Z,20.61
2022-08-26T22:15:31.745Z,20.58
2022-08-26T22:20:36.756Z,20.56
2022-08-26T22:25:39.661Z,20.52
2022-08-26T22:30:43.289Z,20.56
2022-08-26T22:35:52.668Z,20.56
2022-08-26T22:40:56.613Z,20.47
2022-08-26T22:45:59.523Z,20.52
2022-08-26T22:51:03.849Z,20.48
2022-08-26T22:56:07.356Z,20.44
2022-08-26T23:01:10.328Z,20.46
2022-08-26T23:06:14.590Z,20.46
2022-08-26T23:11:17.433Z,20.35
2022-08-26T23:16:21.093Z,20.44
2022-08-26T23:21:25.369Z,20.45
2022-08-26T23:26:28.252Z,20.42
2022-08-26T23:31:31.178Z,20.31
2022-08-26T23:36:35.496Z,20.13
2022-08-26T23:41:38.393Z,20.21
2022-08-26T23:46:41.185Z,20.08
2022-08-26T23:52:02.895Z,19.96
2022-08-26T23:57:06.864Z,20.13
